sensor_id;sensor_type;location;lat;lon;timestamp;temperature;humidity
48515;DHT22;34309;47.260;2.796;2022-07-25T00:00:28;27.40;29.80
48515;DHT22;34309;47.260;2.796;2022-07-25T00:02:53;27.40;29.80
48515;DHT22;34309;47.260;2.796;2022-07-25T00:05:19;27.40;29.80
48515;DHT22;34309;47.260;2.796;2022-07-25T00:07:45;27.40;29.80
48515;DHT22;34309;47.260;2.796;2022-07-25T00:10:11;27.30;29.80
48515;DHT22;34309;47.260;2.796;2022-07-25T00:12:37;27.30;29.70
48515;DHT22;34309;47.260;2.796;2022-07-25T00:15:04;27.30;29.80
48515;DHT22;34309;47.260;2.796;2022-07-25T00:17:30;27.30;29.80
48515;DHT22;34309;47.260;2.796;2022-07-25T00:19:55;27.30;29.70
48515;DHT22;34309;47.260;2.796;2022-07-25T00:22:21;27.30;29.70
48515;DHT22;34309;47.260;2.796;2022-07-25T00:24:47;27.30;29.70
48515;DHT22;34309;47.260;2.796;2022-07-25T00:27:12;27.30;29.70
48515;DHT22;34309;47.260;2.796;2022-07-25T00:29:38;27.30;29.70
48515;DHT22;34309;47.260;2.796;2022-07-25T00:32:04;27.30;29.70
48515;DHT22;34309;47.260;2.796;2022-07-25T00:34:30;27.30;29.70
48515;DHT22;34309;47.260;2.796;2022-07-25T00:36:56;27.30;29.80
48515;DHT22;34309;47.260;2.796;2022-07-25T00:39:21;27.30;30.30
48515;DHT22;34309;47.260;2.796;2022-07-25T00:41:47;27.30;29.70
48515;DHT22;34309;47.260;2.796;2022-07-25T00:44:27;27.30;29.70
48515;DHT22;34309;47.260;2.796;2022-07-25T00:46:53;27.30;29.70
48515;DHT22;34309;47.260;2.796;2022-07-25T00:49:19;27.30;29.70
48515;DHT22;34309;47.260;2.796;2022-07-25T00:51:45;27.30;29.70
48515;DHT22;34309;47.260;2.796;2022-07-25T00:54:11;27.30;29.80
48515;DHT22;34309;47.260;2.796;2022-07-25T00:56:37;27.30;29.70
48515;DHT22;34309;47.260;2.796;2022-07-25T00:59:03;27.30;29.80
48515;DHT22;34309;47.260;2.796;2022-07-25T01:01:29;27.30;29.70
48515;DHT22;34309;47.260;2.796;2022-07-25T01:03:54;27.30;29.70
48515;DHT22;34309;47.260;2.796;2022-07-25T01:06:21;27.30;29.70
48515;DHT22;34309;47.260;2.796;2022-07-25T01:08:47;27.30;29.80
48515;DHT22;34309;47.260;2.796;2022-07-25T01:11:13;27.30;29.70
48515;DHT22;34309;47.260;2.796;2022-07-25T01:13:39;27.30;29.70
48515;DHT22;34309;47.260;2.796;2022-07-25T01:16:05;27.30;29.70
48515;DHT22;34309;47.260;2.796;2022-07-25T01:18:31;27.30;29.80
48515;DHT22;34309;47.260;2.796;2022-07-25T01:20:59;27.30;29.70
48515;DHT22;34309;47.260;2.796;2022-07-25T01:23:25;27.30;29.70
48515;DHT22;34309;47.260;2.796;2022-07-25T01:25:51;27.30;29.70
48515;DHT22;34309;47.260;2.796;2022-07-25T01:28:16;27.30;29.70
48515;DHT22;34309;47.260;2.796;2022-07-25T01:30:43;27.20;29.70
48515;DHT22;34309;47.260;2.796;2022-07-25T01:33:09;27.30;29.70
48515;DHT22;34309;47.260;2.796;2022-07-25T01:35:34;27.20;29.70
48515;DHT22;34309;47.260;2.796;2022-07-25T01:38:00;27.20;29.70
48515;DHT22;34309;47.260;2.796;2022-07-25T01:40:26;27.20;29.70
48515;DHT22;34309;47.260;2.796;2022-07-25T01:42:52;27.20;29.70
48515;DHT22;34309;47.260;2.796;2022-07-25T01:45:18;27.20;29.70
48515;DHT22;34309;47.260;2.796;2022-07-25T01:47:43;27.20;29.70
48515;DHT22;34309;47.260;2.796;2022-07-25T01:50:09;27.20;29.70
48515;DHT22;34309;47.260;2.796;2022-07-25T01:52:36;27.20;29.70
48515;DHT22;34309;47.260;2.796;2022-07-25T01:55:02;27.20;30.20
48515;DHT22;34309;47.260;2.796;2022-07-25T01:57:28;27.20;29.70
48515;DHT22;34309;47.260;2.796;2022-07-25T01:59:53;27.20;29.70
48515;DHT22;34309;47.260;2.796;2022-07-25T02:02:19;27.20;29.70
48515;DHT22;34309;47.260;2.796;2022-07-25T02:04:45;27.20;29.70
48515;DHT22;34309;47.260;2.796;2022-07-25T02:07:10;27.20;30.30
48515;DHT22;34309;47.260;2.796;2022-07-25T02:09:36;27.20;29.70
48515;DHT22;34309;47.260;2.796;2022-07-25T02:12:02;27.10;29.60
48515;DHT22;34309;47.260;2.796;2022-07-25T02:14:28;27.20;29.70
48515;DHT22;34309;47.260;2.796;2022-07-25T02:16:53;27.20;29.70
48515;DHT22;34309;47.260;2.796;2022-07-25T02:19:19;27.20;29.70
48515;DHT22;34309;47.260;2.796;2022-07-25T02:21:45;27.20;29.70
48515;DHT22;34309;47.260;2.796;2022-07-25T02:24:10;27.20;29.70
48515;DHT22;34309;47.260;2.796;2022-07-25T02:26:36;27.20;29.70
48515;DHT22;34309;47.260;2.796;2022-07-25T02:29:02;27.20;29.70
48515;DHT22;34309;47.260;2.796;2022-07-25T02:31:28;27.20;29.70
48515;DHT22;34309;47.260;2.796;2022-07-25T02:33:54;27.10;29.60
48515;DHT22;34309;47.260;2.796;2022-07-25T02:36:20;27.10;29.60
48515;DHT22;34309;47.260;2.796;2022-07-25T02:38:46;27.20;29.70
48515;DHT22;34309;47.260;2.796;2022-07-25T02:41:11;27.10;29.60
48515;DHT22;34309;47.260;2.796;2022-07-25T02:43:37;27.10;29.70
48515;DHT22;34309;47.260;2.796;2022-07-25T02:46:03;27.10;29.60
48515;DHT22;34309;47.260;2.796;2022-07-25T02:48:29;27.10;29.60
48515;DHT22;34309;47.260;2.796;2022-07-25T02:50:54;27.10;29.60
48515;DHT22;34309;47.260;2.796;2022-07-25T02:53:20;27.10;29.60
48515;DHT22;34309;47.260;2.796;2022-07-25T02:55:46;27.10;29.60
48515;DHT22;34309;47.260;2.796;2022-07-25T02:58:11;27.10;29.60
48515;DHT22;34309;47.260;2.796;2022-07-25T03:00:37;27.10;29.60
48515;DHT22;34309;47.260;2.796;2022-07-25T03:03:03;27.10;29.60
48515;DHT22;34309;47.260;2.796;2022-07-25T03:05:29;27.10;29.60
48515;DHT22;34309;47.260;2.796;2022-07-25T03:07:54;27.10;29.60
48515;DHT22;34309;47.260;2.796;2022-07-25T03:10:20;27.10;29.60
48515;DHT22;34309;47.260;2.796;2022-07-25T03:12:46;27.10;29.70
48515;DHT22;34309;47.260;2.796;2022-07-25T03:15:12;27.10;29.70
48515;DHT22;34309;47.260;2.796;2022-07-25T03:17:39;27.10;29.60
48515;DHT22;34309;47.260;2.796;2022-07-25T03:20:05;27.10;29.60
48515;DHT22;34309;47.260;2.796;2022-07-25T03:22:31;27.10;29.60
48515;DHT22;34309;47.260;2.796;2022-07-25T03:24:57;27.10;29.60
48515;DHT22;34309;47.260;2.796;2022-07-25T03:27:23;27.10;29.40
48515;DHT22;34309;47.260;2.796;2022-07-25T03:29:49;27.10;29.60
48515;DHT22;34309;47.260;2.796;2022-07-25T03:32:14;27.10;29.60
48515;DHT22;34309;47.260;2.796;2022-07-25T03:34:40;27.10;29.60
48515;DHT22;34309;47.260;2.796;2022-07-25T03:37:06;27.10;29.60
48515;DHT22;34309;47.260;2.796;2022-07-25T03:39:32;27.10;29.70
48515;DHT22;34309;47.260;2.796;2022-07-25T03:41:58;27.10;29.60
48515;DHT22;34309;47.260;2.796;2022-07-25T03:44:24;27.10;29.60
48515;DHT22;34309;47.260;2.796;2022-07-25T03:46:50;27.10;29.60
48515;DHT22;34309;47.260;2.796;2022-07-25T03:49:16;27.10;29.60
48515;DHT22;34309;47.260;2.796;2022-07-25T03:51:42;27.10;29.60
48515;DHT22;34309;47.260;2.796;2022-07-25T03:54:08;27.10;29.60
48515;DHT22;34309;47.260;2.796;2022-07-25T03:56:46;27.10;29.70
48515;DHT22;34309;47.260;2.796;2022-07-25T03:59:13;27.10;29.60
48515;DHT22;34309;47.260;2.796;2022-07-25T04:01:40;27.00;29.60
48515;DHT22;34309;47.260;2.796;2022-07-25T04:04:06;27.00;29.60
48515;DHT22;34309;47.260;2.796;2022-07-25T04:06:32;27.00;29.60
48515;DHT22;34309;47.260;2.796;2022-07-25T04:08:58;27.00;29.60
48515;DHT22;34309;47.260;2.796;2022-07-25T04:11:24;27.00;29.60
48515;DHT22;34309;47.260;2.796;2022-07-25T04:13:50;27.00;29.60
48515;DHT22;34309;47.260;2.796;2022-07-25T04:16:16;27.00;29.60
48515;DHT22;34309;47.260;2.796;2022-07-25T04:18:42;27.00;29.60
48515;DHT22;34309;47.260;2.796;2022-07-25T04:21:09;27.00;29.60
48515;DHT22;34309;47.260;2.796;2022-07-25T04:23:35;27.00;29.60
48515;DHT22;34309;47.260;2.796;2022-07-25T04:26:01;27.00;29.60
48515;DHT22;34309;47.260;2.796;2022-07-25T04:28:27;27.00;29.60
48515;DHT22;34309;47.260;2.796;2022-07-25T04:30:53;27.00;29.60
48515;DHT22;34309;47.260;2.796;2022-07-25T04:33:20;27.00;29.60
48515;DHT22;34309;47.260;2.796;2022-07-25T04:35:46;27.00;30.10
48515;DHT22;34309;47.260;2.796;2022-07-25T04:38:11;27.00;29.60
48515;DHT22;34309;47.260;2.796;2022-07-25T04:40:38;27.00;29.60
48515;DHT22;34309;47.260;2.796;2022-07-25T04:43:04;27.00;29.60
48515;DHT22;34309;47.260;2.796;2022-07-25T04:45:31;27.00;29.60
48515;DHT22;34309;47.260;2.796;2022-07-25T04:47:57;27.00;29.60
48515;DHT22;34309;47.260;2.796;2022-07-25T04:50:22;27.00;29.60
48515;DHT22;34309;47.260;2.796;2022-07-25T04:52:49;27.00;29.60
48515;DHT22;34309;47.260;2.796;2022-07-25T04:55:15;27.00;29.60
48515;DHT22;34309;47.260;2.796;2022-07-25T04:57:40;27.00;29.60
48515;DHT22;34309;47.260;2.796;2022-07-25T05:00:08;27.00;29.60
48515;DHT22;34309;47.260;2.796;2022-07-25T05:02:34;26.90;29.50
48515;DHT22;34309;47.260;2.796;2022-07-25T05:05:01;26.90;29.50
48515;DHT22;34309;47.260;2.796;2022-07-25T05:07:26;27.00;29.60
48515;DHT22;34309;47.260;2.796;2022-07-25T05:09:53;26.90;29.50
48515;DHT22;34309;47.260;2.796;2022-07-25T05:12:19;27.00;29.60
48515;DHT22;34309;47.260;2.796;2022-07-25T05:14:45;26.90;29.50
48515;DHT22;34309;47.260;2.796;2022-07-25T05:17:11;26.90;29.50
48515;DHT22;34309;47.260;2.796;2022-07-25T05:19:37;26.90;29.50
48515;DHT22;34309;47.260;2.796;2022-07-25T05:22:03;26.90;29.60
48515;DHT22;34309;47.260;2.796;2022-07-25T05:24:35;26.90;29.50
48515;DHT22;34309;47.260;2.796;2022-07-25T05:27:01;26.90;29.50
48515;DHT22;34309;47.260;2.796;2022-07-25T05:29:27;26.90;29.50
48515;DHT22;34309;47.260;2.796;2022-07-25T05:31:53;26.90;29.50
48515;DHT22;34309;47.260;2.796;2022-07-25T05:34:19;26.90;29.50
48515;DHT22;34309;47.260;2.796;2022-07-25T05:36:45;26.90;29.50
48515;DHT22;34309;47.260;2.796;2022-07-25T05:39:10;26.90;29.50
48515;DHT22;34309;47.260;2.796;2022-07-25T05:41:36;26.90;29.60
48515;DHT22;34309;47.260;2.796;2022-07-25T05:44:02;26.90;29.50
48515;DHT22;34309;47.260;2.796;2022-07-25T05:46:30;26.90;29.50
48515;DHT22;34309;47.260;2.796;2022-07-25T05:48:56;26.90;29.50
48515;DHT22;34309;47.260;2.796;2022-07-25T05:51:21;26.90;29.50
48515;DHT22;34309;47.260;2.796;2022-07-25T05:53:47;26.90;29.50
48515;DHT22;34309;47.260;2.796;2022-07-25T05:56:13;26.90;29.50
48515;DHT22;34309;47.260;2.796;2022-07-25T05:58:38;26.90;29.50
48515;DHT22;34309;47.260;2.796;2022-07-25T06:01:06;26.90;29.50
48515;DHT22;34309;47.260;2.796;2022-07-25T06:03:32;26.90;29.50
48515;DHT22;34309;47.260;2.796;2022-07-25T06:05:59;26.90;29.50
48515;DHT22;34309;47.260;2.796;2022-07-25T06:08:25;26.90;29.50
48515;DHT22;34309;47.260;2.796;2022-07-25T06:10:53;26.90;29.50
48515;DHT22;34309;47.260;2.796;2022-07-25T06:13:19;26.90;29.50
48515;DHT22;34309;47.260;2.796;2022-07-25T06:15:44;26.90;29.60
48515;DHT22;34309;47.260;2.796;2022-07-25T06:18:10;26.90;29.50
48515;DHT22;34309;47.260;2.796;2022-07-25T06:20:36;26.90;29.50
48515;DHT22;34309;47.260;2.796;2022-07-25T06:23:02;26.90;29.60
48515;DHT22;34309;47.260;2.796;2022-07-25T06:25:29;26.90;29.60
48515;DHT22;34309;47.260;2.796;2022-07-25T06:27:55;26.90;29.50
48515;DHT22;34309;47.260;2.796;2022-07-25T06:30:21;26.90;29.50
48515;DHT22;34309;47.260;2.796;2022-07-25T06:32:47;26.90;29.60
48515;DHT22;34309;47.260;2.796;2022-07-25T06:35:13;26.90;29.50
48515;DHT22;34309;47.260;2.796;2022-07-25T06:37:39;26.90;29.60
48515;DHT22;34309;47.260;2.796;2022-07-25T06:40:05;26.90;29.50
48515;DHT22;34309;47.260;2.796;2022-07-25T06:42:31;26.90;29.50
48515;DHT22;34309;47.260;2.796;2022-07-25T06:45:03;26.90;29.50
48515;DHT22;34309;47.260;2.796;2022-07-25T06:47:29;26.90;29.70
48515;DHT22;34309;47.260;2.796;2022-07-25T06:49:55;26.90;29.60
48515;DHT22;34309;47.260;2.796;2022-07-25T06:52:21;26.90;29.50
48515;DHT22;34309;47.260;2.796;2022-07-25T06:54:47;26.90;29.60
48515;DHT22;34309;47.260;2.796;2022-07-25T06:57:12;26.90;29.60
48515;DHT22;34309;47.260;2.796;2022-07-25T06:59:38;26.90;29.50
48515;DHT22;34309;47.260;2.796;2022-07-25T07:02:04;26.90;29.60
48515;DHT22;34309;47.260;2.796;2022-07-25T07:04:30;26.90;29.50
48515;DHT22;34309;47.260;2.796;2022-07-25T07:06:55;26.90;29.50
48515;DHT22;34309;47.260;2.796;2022-07-25T07:09:21;26.90;29.50
48515;DHT22;34309;47.260;2.796;2022-07-25T07:11:47;26.90;29.60
48515;DHT22;34309;47.260;2.796;2022-07-25T07:14:13;26.90;29.60
48515;DHT22;34309;47.260;2.796;2022-07-25T07:16:38;26.90;29.50
48515;DHT22;34309;47.260;2.796;2022-07-25T07:19:05;26.90;29.60
48515;DHT22;34309;47.260;2.796;2022-07-25T07:21:31;26.90;29.50
48515;DHT22;34309;47.260;2.796;2022-07-25T07:23:57;26.90;29.50
48515;DHT22;34309;47.260;2.796;2022-07-25T07:26:22;26.90;29.50
48515;DHT22;34309;47.260;2.796;2022-07-25T07:28:49;26.90;29.50
48515;DHT22;34309;47.260;2.796;2022-07-25T07:31:17;26.90;29.50
48515;DHT22;34309;47.260;2.796;2022-07-25T07:33:43;26.90;29.70
48515;DHT22;34309;47.260;2.796;2022-07-25T07:36:09;26.90;29.50
48515;DHT22;34309;47.260;2.796;2022-07-25T07:38:35;26.90;29.60
48515;DHT22;34309;47.260;2.796;2022-07-25T07:41:01;26.90;29.50
48515;DHT22;34309;47.260;2.796;2022-07-25T07:43:26;26.90;29.50
48515;DHT22;34309;47.260;2.796;2022-07-25T07:45:54;26.90;29.50
48515;DHT22;34309;47.260;2.796;2022-07-25T07:48:21;26.90;29.50
48515;DHT22;34309;47.260;2.796;2022-07-25T07:50:46;26.90;29.70
48515;DHT22;34309;47.260;2.796;2022-07-25T07:53:12;26.90;29.70
48515;DHT22;34309;47.260;2.796;2022-07-25T07:55:38;26.90;29.70
48515;DHT22;34309;47.260;2.796;2022-07-25T07:58:18;26.90;29.80
48515;DHT22;34309;47.260;2.796;2022-07-25T08:00:46;26.90;29.70
48515;DHT22;34309;47.260;2.796;2022-07-25T08:03:12;26.90;29.50
48515;DHT22;34309;47.260;2.796;2022-07-25T08:05:43;26.90;29.70
48515;DHT22;34309;47.260;2.796;2022-07-25T08:08:11;26.90;29.80
48515;DHT22;34309;47.260;2.796;2022-07-25T08:10:42;26.90;29.60
48515;DHT22;34309;47.260;2.796;2022-07-25T08:13:28;26.90;30.00
48515;DHT22;34309;47.260;2.796;2022-07-25T08:15:57;26.90;29.50
48515;DHT22;34309;47.260;2.796;2022-07-25T08:18:24;26.90;29.50
48515;DHT22;34309;47.260;2.796;2022-07-25T08:20:51;26.90;29.80
48515;DHT22;34309;47.260;2.796;2022-07-25T08:23:18;26.90;29.80
48515;DHT22;34309;47.260;2.796;2022-07-25T08:25:44;26.90;29.90
48515;DHT22;34309;47.260;2.796;2022-07-25T08:28:11;26.90;29.90
48515;DHT22;34309;47.260;2.796;2022-07-25T08:30:38;26.90;30.00
48515;DHT22;34309;47.260;2.796;2022-07-25T08:33:06;26.90;30.00
48515;DHT22;34309;47.260;2.796;2022-07-25T08:35:33;26.90;29.80
48515;DHT22;34309;47.260;2.796;2022-07-25T08:37:59;26.90;29.90
48515;DHT22;34309;47.260;2.796;2022-07-25T08:40:27;26.90;30.00
48515;DHT22;34309;47.260;2.796;2022-07-25T08:42:53;26.90;29.80
48515;DHT22;34309;47.260;2.796;2022-07-25T08:45:21;26.90;29.60
48515;DHT22;34309;47.260;2.796;2022-07-25T08:47:49;26.90;30.00
48515;DHT22;34309;47.260;2.796;2022-07-25T08:50:18;26.90;29.90
48515;DHT22;34309;47.260;2.796;2022-07-25T08:52:46;26.90;30.00
48515;DHT22;34309;47.260;2.796;2022-07-25T08:55:14;26.90;29.60
48515;DHT22;34309;47.260;2.796;2022-07-25T08:57:42;26.90;29.80
48515;DHT22;34309;47.260;2.796;2022-07-25T09:00:13;27.00;30.00
48515;DHT22;34309;47.260;2.796;2022-07-25T09:02:39;27.00;30.00
48515;DHT22;34309;47.260;2.796;2022-07-25T09:05:06;27.00;30.00
48515;DHT22;34309;47.260;2.796;2022-07-25T09:07:39;27.00;29.90
48515;DHT22;34309;47.260;2.796;2022-07-25T09:12:39;27.00;30.00
48515;DHT22;34309;47.260;2.796;2022-07-25T09:15:05;27.00;29.80
48515;DHT22;34309;47.260;2.796;2022-07-25T09:17:34;27.00;29.70
48515;DHT22;34309;47.260;2.796;2022-07-25T09:20:00;27.00;29.70
48515;DHT22;34309;47.260;2.796;2022-07-25T09:22:26;27.00;30.00
48515;DHT22;34309;47.260;2.796;2022-07-25T09:24:52;27.00;30.00
48515;DHT22;34309;47.260;2.796;2022-07-25T09:27:17;27.00;29.80
48515;DHT22;34309;47.260;2.796;2022-07-25T09:29:43;27.00;29.90
48515;DHT22;34309;47.260;2.796;2022-07-25T09:32:17;27.00;30.00
48515;DHT22;34309;47.260;2.796;2022-07-25T09:34:46;27.00;29.90
48515;DHT22;34309;47.260;2.796;2022-07-25T09:37:16;27.00;29.60
48515;DHT22;34309;47.260;2.796;2022-07-25T09:42:31;27.00;29.70
48515;DHT22;34309;47.260;2.796;2022-07-25T09:45:05;27.00;29.60
48515;DHT22;34309;47.260;2.796;2022-07-25T09:47:34;27.00;29.60
48515;DHT22;34309;47.260;2.796;2022-07-25T09:50:00;27.00;29.70
48515;DHT22;34309;47.260;2.796;2022-07-25T09:52:26;27.00;29.60
48515;DHT22;34309;47.260;2.796;2022-07-25T09:54:52;27.00;29.60
48515;DHT22;34309;47.260;2.796;2022-07-25T09:57:20;27.00;29.70
48515;DHT22;34309;47.260;2.796;2022-07-25T09:59:46;27.00;29.60
48515;DHT22;34309;47.260;2.796;2022-07-25T10:02:32;27.00;29.90
48515;DHT22;34309;47.260;2.796;2022-07-25T10:05:16;27.00;29.80
48515;DHT22;34309;47.260;2.796;2022-07-25T10:07:49;27.00;29.60
48515;DHT22;34309;47.260;2.796;2022-07-25T10:10:30;27.00;29.60
48515;DHT22;34309;47.260;2.796;2022-07-25T10:13:10;27.00;29.60
48515;DHT22;34309;47.260;2.796;2022-07-25T10:15:47;27.10;29.60
48515;DHT22;34309;47.260;2.796;2022-07-25T10:18:15;27.00;29.80
48515;DHT22;34309;47.260;2.796;2022-07-25T10:20:42;27.00;29.70
48515;DHT22;34309;47.260;2.796;2022-07-25T10:23:23;27.10;29.60
48515;DHT22;34309;47.260;2.796;2022-07-25T10:26:19;27.00;29.60
48515;DHT22;34309;47.260;2.796;2022-07-25T10:28:49;27.00;29.60
48515;DHT22;34309;47.260;2.796;2022-07-25T10:33:57;27.10;29.60
48515;DHT22;34309;47.260;2.796;2022-07-25T10:36:26;27.10;29.60
48515;DHT22;34309;47.260;2.796;2022-07-25T10:38:59;27.10;29.70
48515;DHT22;34309;47.260;2.796;2022-07-25T10:41:27;27.10;29.70
48515;DHT22;34309;47.260;2.796;2022-07-25T10:43:58;27.10;29.60
48515;DHT22;34309;47.260;2.796;2022-07-25T10:46:25;27.10;29.60
48515;DHT22;34309;47.260;2.796;2022-07-25T10:49:00;27.10;30.00
48515;DHT22;34309;47.260;2.796;2022-07-25T10:51:32;27.10;29.60
48515;DHT22;34309;47.260;2.796;2022-07-25T10:53:59;27.10;29.70
48515;DHT22;34309;47.260;2.796;2022-07-25T10:56:27;27.10;29.70
48515;DHT22;34309;47.260;2.796;2022-07-25T10:59:00;27.10;29.70
48515;DHT22;34309;47.260;2.796;2022-07-25T11:01:28;27.10;29.60
48515;DHT22;34309;47.260;2.796;2022-07-25T11:04:01;27.10;29.70
48515;DHT22;34309;47.260;2.796;2022-07-25T11:06:38;27.10;29.70
48515;DHT22;34309;47.260;2.796;2022-07-25T11:11:46;27.10;29.70
48515;DHT22;34309;47.260;2.796;2022-07-25T11:14:20;27.10;29.70
48515;DHT22;34309;47.260;2.796;2022-07-25T11:16:48;27.10;29.80
48515;DHT22;34309;47.260;2.796;2022-07-25T11:19:27;27.10;29.60
48515;DHT22;34309;47.260;2.796;2022-07-25T11:21:55;27.10;29.60
48515;DHT22;34309;47.260;2.796;2022-07-25T11:24:32;27.10;29.60
48515;DHT22;34309;47.260;2.796;2022-07-25T11:26:58;27.10;29.60
48515;DHT22;34309;47.260;2.796;2022-07-25T11:29:25;27.10;29.60
48515;DHT22;34309;47.260;2.796;2022-07-25T11:31:55;27.10;29.70
48515;DHT22;34309;47.260;2.796;2022-07-25T11:34:23;27.10;29.60
48515;DHT22;34309;47.260;2.796;2022-07-25T11:36:51;27.10;29.60
48515;DHT22;34309;47.260;2.796;2022-07-25T11:39:20;27.10;29.70
48515;DHT22;34309;47.260;2.796;2022-07-25T11:41:56;27.10;29.60
48515;DHT22;34309;47.260;2.796;2022-07-25T11:44:31;27.10;29.60
48515;DHT22;34309;47.260;2.796;2022-07-25T11:46:57;27.10;29.80
48515;DHT22;34309;47.260;2.796;2022-07-25T11:49:23;27.10;29.70
48515;DHT22;34309;47.260;2.796;2022-07-25T11:51:49;27.10;29.60
48515;DHT22;34309;47.260;2.796;2022-07-25T11:54:15;27.10;29.60
48515;DHT22;34309;47.260;2.796;2022-07-25T11:56:41;27.20;29.70
48515;DHT22;34309;47.260;2.796;2022-07-25T11:59:08;27.20;29.70
48515;DHT22;34309;47.260;2.796;2022-07-25T12:01:36;27.20;29.70
48515;DHT22;34309;47.260;2.796;2022-07-25T12:04:11;27.20;29.70
48515;DHT22;34309;47.260;2.796;2022-07-25T12:06:39;27.20;29.70
48515;DHT22;34309;47.260;2.796;2022-07-25T12:09:31;27.20;29.80
48515;DHT22;34309;47.260;2.796;2022-07-25T12:12:02;27.20;29.70
48515;DHT22;34309;47.260;2.796;2022-07-25T12:14:28;27.20;29.70
48515;DHT22;34309;47.260;2.796;2022-07-25T12:16:53;27.20;29.70
48515;DHT22;34309;47.260;2.796;2022-07-25T12:19:20;27.20;29.70
48515;DHT22;34309;47.260;2.796;2022-07-25T12:21:46;27.20;29.70
48515;DHT22;34309;47.260;2.796;2022-07-25T12:24:12;27.20;29.70
48515;DHT22;34309;47.260;2.796;2022-07-25T12:26:38;27.20;29.80
48515;DHT22;34309;47.260;2.796;2022-07-25T12:29:03;27.20;29.70
48515;DHT22;34309;47.260;2.796;2022-07-25T12:31:29;27.20;29.70
48515;DHT22;34309;47.260;2.796;2022-07-25T12:33:55;27.20;29.90
48515;DHT22;34309;47.260;2.796;2022-07-25T12:36:21;27.20;30.00
48515;DHT22;34309;47.260;2.796;2022-07-25T12:38:47;27.20;29.70
48515;DHT22;34309;47.260;2.796;2022-07-25T12:41:12;27.20;29.70
48515;DHT22;34309;47.260;2.796;2022-07-25T12:43:38;27.20;29.80
48515;DHT22;34309;47.260;2.796;2022-07-25T12:46:04;27.20;30.00
48515;DHT22;34309;47.260;2.796;2022-07-25T12:48:30;27.20;29.80
48515;DHT22;34309;47.260;2.796;2022-07-25T12:50:56;27.20;29.70
48515;DHT22;34309;47.260;2.796;2022-07-25T12:53:22;27.20;30.10
48515;DHT22;34309;47.260;2.796;2022-07-25T12:55:49;27.20;30.10
48515;DHT22;34309;47.260;2.796;2022-07-25T12:58:15;27.20;30.10
48515;DHT22;34309;47.260;2.796;2022-07-25T13:00:42;27.30;29.70
48515;DHT22;34309;47.260;2.796;2022-07-25T13:03:08;27.30;30.00
48515;DHT22;34309;47.260;2.796;2022-07-25T13:05:34;27.30;30.00
48515;DHT22;34309;47.260;2.796;2022-07-25T13:08:03;27.30;29.90
48515;DHT22;34309;47.260;2.796;2022-07-25T13:10:29;27.30;29.90
48515;DHT22;34309;47.260;2.796;2022-07-25T13:12:54;27.30;30.00
48515;DHT22;34309;47.260;2.796;2022-07-25T13:15:20;27.30;30.00
48515;DHT22;34309;47.260;2.796;2022-07-25T13:17:48;27.30;30.00
48515;DHT22;34309;47.260;2.796;2022-07-25T13:20:14;27.30;29.70
48515;DHT22;34309;47.260;2.796;2022-07-25T13:22:40;27.30;29.80
48515;DHT22;34309;47.260;2.796;2022-07-25T13:25:06;27.30;29.90
48515;DHT22;34309;47.260;2.796;2022-07-25T13:27:32;27.30;29.70
48515;DHT22;34309;47.260;2.796;2022-07-25T13:29:57;27.30;29.70
48515;DHT22;34309;47.260;2.796;2022-07-25T13:32:23;27.30;29.90
48515;DHT22;34309;47.260;2.796;2022-07-25T13:34:51;27.30;29.70
48515;DHT22;34309;47.260;2.796;2022-07-25T13:37:17;27.30;29.80
48515;DHT22;34309;47.260;2.796;2022-07-25T13:39:42;27.30;29.80
48515;DHT22;34309;47.260;2.796;2022-07-25T13:42:08;27.30;30.00
48515;DHT22;34309;47.260;2.796;2022-07-25T13:44:34;27.30;30.00
48515;DHT22;34309;47.260;2.796;2022-07-25T13:47:00;27.30;29.90
48515;DHT22;34309;47.260;2.796;2022-07-25T13:49:26;27.30;30.00
48515;DHT22;34309;47.260;2.796;2022-07-25T13:51:52;27.30;30.20
48515;DHT22;34309;47.260;2.796;2022-07-25T13:54:17;27.40;29.80
48515;DHT22;34309;47.260;2.796;2022-07-25T13:56:43;27.30;29.70
48515;DHT22;34309;47.260;2.796;2022-07-25T13:59:09;27.40;29.80
48515;DHT22;34309;47.260;2.796;2022-07-25T14:01:35;27.40;30.40
48515;DHT22;34309;47.260;2.796;2022-07-25T14:04:01;27.40;29.90
48515;DHT22;34309;47.260;2.796;2022-07-25T14:06:26;27.40;29.90
48515;DHT22;34309;47.260;2.796;2022-07-25T14:08:52;27.40;29.90
48515;DHT22;34309;47.260;2.796;2022-07-25T14:11:19;27.40;29.90
48515;DHT22;34309;47.260;2.796;2022-07-25T14:13:45;27.40;29.90
48515;DHT22;34309;47.260;2.796;2022-07-25T14:16:13;27.40;30.00
48515;DHT22;34309;47.260;2.796;2022-07-25T14:18:40;27.40;29.90
48515;DHT22;34309;47.260;2.796;2022-07-25T14:21:06;27.40;30.00
48515;DHT22;34309;47.260;2.796;2022-07-25T14:23:32;27.40;30.10
48515;DHT22;34309;47.260;2.796;2022-07-25T14:25:58;27.40;30.00
48515;DHT22;34309;47.260;2.796;2022-07-25T14:28:23;27.40;30.10
48515;DHT22;34309;47.260;2.796;2022-07-25T14:30:49;27.40;30.00
48515;DHT22;34309;47.260;2.796;2022-07-25T14:33:15;27.40;29.80
48515;DHT22;34309;47.260;2.796;2022-07-25T14:35:41;27.40;29.90
48515;DHT22;34309;47.260;2.796;2022-07-25T14:38:07;27.40;30.00
48515;DHT22;34309;47.260;2.796;2022-07-25T14:40:33;27.40;30.00
48515;DHT22;34309;47.260;2.796;2022-07-25T14:42:58;27.40;29.90
48515;DHT22;34309;47.260;2.796;2022-07-25T14:45:24;27.40;30.00
48515;DHT22;34309;47.260;2.796;2022-07-25T14:47:50;27.40;30.00
48515;DHT22;34309;47.260;2.796;2022-07-25T14:50:15;27.50;30.00
48515;DHT22;34309;47.260;2.796;2022-07-25T14:52:41;27.40;30.10
48515;DHT22;34309;47.260;2.796;2022-07-25T14:55:07;27.40;30.00
48515;DHT22;34309;47.260;2.796;2022-07-25T14:57:33;27.50;30.00
48515;DHT22;34309;47.260;2.796;2022-07-25T14:59:59;27.50;30.00
48515;DHT22;34309;47.260;2.796;2022-07-25T15:02:27;27.40;30.10
48515;DHT22;34309;47.260;2.796;2022-07-25T15:04:52;27.50;30.00
48515;DHT22;34309;47.260;2.796;2022-07-25T15:07:18;27.50;30.10
48515;DHT22;34309;47.260;2.796;2022-07-25T15:09:44;27.50;30.20
48515;DHT22;34309;47.260;2.796;2022-07-25T15:12:10;27.50;30.10
48515;DHT22;34309;47.260;2.796;2022-07-25T15:14:36;27.50;30.00
48515;DHT22;34309;47.260;2.796;2022-07-25T15:17:01;27.50;30.10
48515;DHT22;34309;47.260;2.796;2022-07-25T15:19:27;27.50;30.00
48515;DHT22;34309;47.260;2.796;2022-07-25T15:21:53;27.50;30.20
48515;DHT22;34309;47.260;2.796;2022-07-25T15:24:18;27.50;30.20
48515;DHT22;34309;47.260;2.796;2022-07-25T15:26:44;27.50;30.20
48515;DHT22;34309;47.260;2.796;2022-07-25T15:29:10;27.50;30.10
48515;DHT22;34309;47.260;2.796;2022-07-25T15:31:37;27.50;30.30
48515;DHT22;34309;47.260;2.796;2022-07-25T15:34:03;27.50;30.40
48515;DHT22;34309;47.260;2.796;2022-07-25T15:36:29;27.50;30.40
48515;DHT22;34309;47.260;2.796;2022-07-25T15:38:55;27.50;30.40